• Join FlightAware (Why Join?)
  • Login
  • US Flag 
12:30AM EST


 

Airport Tracker/Info


-or-


 

Live Flight TrackerFlight Track Log ✈ ASQ397T ✈ 12-Apr-2013 ✈ KIAH - KDAL

Flight Track Log - Related Links

Times and Time Zones

All times are in EDT time to prevent confusion due to time zone crossing. See the ASQ397T flight status page for this flight to view local times or setup timezone preferences in your user account.

Time Position Orientation Groundspeed Altitude Reporting Facility
EDT Latitude Longitude Course Direction KTS MPH feet Rate Location/Type
10:52AM 29.9592 -95.3392 32° Northeast 167 192 1,000  Level Houston Center
10:53AM 30.0044 -95.3069 32° Northeast 249 287 2,900 1,200 Climbing Houston Center
10:54AM 30.0308 -95.3108 353° North 247 284 3,000 60 Climbing Houston Center
10:54AM 30.0769 -95.3175 353° North 254 292 3,000  Level Houston Center
10:55AM 30.1325 -95.3519 332° Northwest 256 295 3,000 300 Level Houston Center
10:56AM 30.1581 -95.3725 325° Northwest 258 297 3,500 2,340 Climbing Houston Center
10:56AM 30.1914 -95.3981 326° Northwest 251 289 5,400 3,000 Climbing Houston Center
10:57AM 30.2167 -95.4139 332° Northwest 250 288 6,600 2,520 Climbing Houston Center
10:58AM 30.2786 -95.4614 326° Northwest 263 303 9,400 1,620 Climbing Houston Center
10:59AM 30.3464 -95.5111 328° Northwest 283 326 10,000 240 Climbing Houston Center
11:00AM 30.4389 -95.5808 327° Northwest 324 373 10,000  Level Houston Center
11:01AM 30.5203 -95.6397 328° Northwest 342 394 10,000  Level Houston Center
11:02AM 30.6094 -95.6908 334° Northwest 356 410 10,000  Level Houston Center
11:03AM 30.6967 -95.7378 335° Northwest 358 412 10,000  Level Houston Center
11:04AM 30.8050 -95.7956 335° Northwest 353 406 10,000  Level Houston Center
11:05AM 30.8956 -95.8442 335° Northwest 356 410 10,000  Level Houston Center
11:06AM 30.9853 -95.8919 335° Northwest 353 406 10,000  Level Houston Center
11:07AM 31.0806 -95.9422 336° Northwest 352 405 10,000  Level Houston Center
11:08AM 31.1681 -95.9767 341° North 354 407 10,000  Level Houston Center
11:09AM 31.2764 -96.0036 348° North 351 404 10,000  Level Fort Worth Center
11:10AM 31.3769 -96.0289 348° North 360 414 10,000  Level Fort Worth Center
11:11AM 31.4711 -96.0494 349° North 346 398 10,000  Level Fort Worth Center
11:12AM 31.5717 -96.0722 349° North 352 405 10,000  Level Fort Worth Center
11:13AM 31.6447 -96.0908 348° North 352 405 10,000  Level Fort Worth Center
11:14AM 31.7619 -96.1233 347° North 357 411 10,000  Level Fort Worth Center
11:15AM 31.8583 -96.1586 343° North 357 411 10,000  Level Fort Worth Center
11:16AM 31.9547 -96.1939 343° North 357 411 10,000  Level Fort Worth Center
11:17AM 32.0469 -96.2272 343° North 351 404 10,000  Level Fort Worth Center
11:18AM 32.1331 -96.2603 342° North 356 410 10,000  Level Fort Worth Center
11:19AM 32.2333 -96.2958 343° North 346 398 10,000 -60 Level Fort Worth Center
11:20AM 32.3047 -96.3219 343° North 312 359 9,900 -540 Descending Fort Worth Center
11:21AM 32.3864 -96.3531 342° North 284 327 9,000 -480 Descending Fort Worth Center
11:22AM 32.4533 -96.3794 342° North 278 320 9,000 -600 Level Fort Worth Center
11:23AM 32.5311 -96.4278 332° Northwest 285 328 7,900 -1,380 Descending Fort Worth Center
11:24AM 32.5897 -96.4617 334° Northwest 268 308 6,300 -1,440 Descending Fort Worth Center
11:25AM 32.6611 -96.5053 333° Northwest 260 299 5,100 -660 Descending Fort Worth Center
11:26AM 32.7136 -96.5517 323° Northwest 255 293 5,000 -60 Descending Fort Worth Center
11:27AM 32.7725 -96.6131 319° Northwest 260 299 5,000 -120 Level Fort Worth Center
11:28AM 32.8228 -96.6644 319° Northwest 266 306 4,800 -540 Descending Fort Worth Center
11:29AM 32.8833 -96.7167 324° Northwest 253 291 4,000 -720 Descending Dallas / Fort Worth TRACON
11:30AM 32.9167 -96.7667 308° West 227 261 3,500 -540 Descending Dallas / Fort Worth TRACON
11:31AM 32.9500 -96.8333 301° West 223 257 3,000 -660 Descending Dallas / Fort Worth TRACON
11:32AM 32.9167 -96.8833 232° Southwest 186 214 2,300 -900 Descending Dallas / Fort Worth TRACON
11:33AM 32.8667 -96.8833 180° South 146 168 1,300 -1,020 Descending Dallas / Fort Worth TRACON
11:35AM 32.8471 -96.8518 188° South  Level Estimated
11:42AM 32.8471 -96.8518 188° South  Level Estimated